sensor_id;sensor_type;location;lat;lon;timestamp;P1;durP1;ratioP1;P2;durP2;ratioP2
25649;SDS011;13505;45.196;5.696;2023-10-08T04:32:25;17.02;;;8.57;;
25649;SDS011;13505;45.196;5.696;2023-10-08T04:37:16;14.55;;;8.05;;
25649;SDS011;13505;45.196;5.696;2023-10-08T04:42:10;14.50;;;7.72;;
25649;SDS011;13505;45.196;5.696;2023-10-08T04:47:02;14.13;;;7.88;;
25649;SDS011;13505;45.196;5.696;2023-10-08T04:52:00;16.65;;;7.63;;
25649;SDS011;13505;45.196;5.696;2023-10-08T04:57:01;17.45;;;7.40;;
25649;SDS011;13505;45.196;5.696;2023-10-08T05:01:51;11.55;;;7.15;;
25649;SDS011;13505;45.196;5.696;2023-10-08T05:07:00;12.55;;;7.63;;
25649;SDS011;13505;45.196;5.696;2023-10-08T05:12:09;13.35;;;6.93;;
25649;SDS011;13505;45.196;5.696;2023-10-08T05:17:34;12.45;;;6.68;;
25649;SDS011;13505;45.196;5.696;2023-10-08T05:22:36;15.45;;;7.10;;
25649;SDS011;13505;45.196;5.696;2023-10-08T05:27:26;13.05;;;6.45;;
25649;SDS011;13505;45.196;5.696;2023-10-08T05:32:28;11.05;;;7.10;;
25649;SDS011;13505;45.196;5.696;2023-10-08T05:37:28;12.80;;;6.82;;
25649;SDS011;13505;45.196;5.696;2023-10-08T05:42:22;14.07;;;6.95;;
25649;SDS011;13505;45.196;5.696;2023-10-08T05:47:18;12.05;;;6.65;;
25649;SDS011;13505;45.196;5.696;2023-10-08T05:52:17;10.32;;;6.53;;
25649;SDS011;13505;45.196;5.696;2023-10-08T05:57:31;12.45;;;6.80;;
25649;SDS011;13505;45.196;5.696;2023-10-08T06:02:33;15.32;;;6.95;;
25649;SDS011;13505;45.196;5.696;2023-10-08T06:07:23;11.70;;;6.85;;
25649;SDS011;13505;45.196;5.696;2023-10-08T06:17:20;10.60;;;5.97;;
25649;SDS011;13505;45.196;5.696;2023-10-08T06:22:29;11.63;;;5.43;;
25649;SDS011;13505;45.196;5.696;2023-10-08T06:27:19;12.02;;;5.88;;
25649;SDS011;13505;45.196;5.696;2023-10-08T06:32:11;12.82;;;5.80;;
25649;SDS011;13505;45.196;5.696;2023-10-08T06:37:03;12.15;;;5.38;;
25649;SDS011;13505;45.196;5.696;2023-10-08T06:41:54;8.82;;;5.55;;
25649;SDS011;13505;45.196;5.696;2023-10-08T06:46:55;12.05;;;5.82;;
25649;SDS011;13505;45.196;5.696;2023-10-08T06:52:38;10.93;;;5.82;;
25649;SDS011;13505;45.196;5.696;2023-10-08T06:57:34;10.45;;;6.00;;
25649;SDS011;13505;45.196;5.696;2023-10-08T07:02:29;11.63;;;6.10;;
25649;SDS011;13505;45.196;5.696;2023-10-08T07:07:37;10.65;;;5.72;;
25649;SDS011;13505;45.196;5.696;2023-10-08T07:12:51;12.32;;;5.50;;
25649;SDS011;13505;45.196;5.696;2023-10-08T07:17:46;10.48;;;5.47;;
25649;SDS011;13505;45.196;5.696;2023-10-08T07:23:16;11.45;;;5.65;;
25649;SDS011;13505;45.196;5.696;2023-10-08T07:29:05;9.05;;;5.28;;
25649;SDS011;13505;45.196;5.696;2023-10-08T07:40:56;14.98;;;7.43;;
25649;SDS011;13505;45.196;5.696;2023-10-08T07:45:47;14.23;;;6.85;;
25649;SDS011;13505;45.196;5.696;2023-10-08T07:50:41;12.50;;;7.30;;
25649;SDS011;13505;45.196;5.696;2023-10-08T07:55:34;12.73;;;6.90;;
25649;SDS011;13505;45.196;5.696;2023-10-08T08:00:25;12.45;;;6.60;;
25649;SDS011;13505;45.196;5.696;2023-10-08T08:05:20;11.13;;;5.35;;
25649;SDS011;13505;45.196;5.696;2023-10-08T08:10:11;9.50;;;5.18;;
25649;SDS011;13505;45.196;5.696;2023-10-08T08:15:02;9.60;;;5.22;;
25649;SDS011;13505;45.196;5.696;2023-10-08T08:20:04;10.32;;;4.60;;
25649;SDS011;13505;45.196;5.696;2023-10-08T08:25:07;11.90;;;5.30;;
25649;SDS011;13505;45.196;5.696;2023-10-08T08:30:16;14.20;;;6.45;;
25649;SDS011;13505;45.196;5.696;2023-10-08T08:35:09;11.40;;;6.80;;
25649;SDS011;13505;45.196;5.696;2023-10-08T08:40:04;12.55;;;6.28;;
25649;SDS011;13505;45.196;5.696;2023-10-08T08:45:17;12.18;;;7.15;;
25649;SDS011;13505;45.196;5.696;2023-10-08T08:50:10;12.90;;;6.80;;
25649;SDS011;13505;45.196;5.696;2023-10-08T08:55:00;11.00;;;6.50;;
25649;SDS011;13505;45.196;5.696;2023-10-08T08:59:56;11.13;;;6.40;;
25649;SDS011;13505;45.196;5.696;2023-10-08T09:04:48;8.77;;;5.15;;
25649;SDS011;13505;45.196;5.696;2023-10-08T09:09:43;11.02;;;5.45;;
25649;SDS011;13505;45.196;5.696;2023-10-08T09:14:34;9.10;;;5.80;;
25649;SDS011;13505;45.196;5.696;2023-10-08T09:19:26;11.65;;;6.20;;
25649;SDS011;13505;45.196;5.696;2023-10-08T09:24:18;11.75;;;6.25;;
25649;SDS011;13505;45.196;5.696;2023-10-08T09:29:11;10.27;;;6.25;;
25649;SDS011;13505;45.196;5.696;2023-10-08T09:34:02;13.68;;;6.22;;
25649;SDS011;13505;45.196;5.696;2023-10-08T09:38:53;13.18;;;5.97;;
25649;SDS011;13505;45.196;5.696;2023-10-08T09:43:43;11.43;;;5.75;;
25649;SDS011;13505;45.196;5.696;2023-10-08T09:48:37;13.90;;;5.97;;
25649;SDS011;13505;45.196;5.696;2023-10-08T09:53:32;10.88;;;6.18;;
25649;SDS011;13505;45.196;5.696;2023-10-08T09:58:32;10.70;;;6.18;;
25649;SDS011;13505;45.196;5.696;2023-10-08T10:03:26;12.07;;;6.05;;
25649;SDS011;13505;45.196;5.696;2023-10-08T10:08:17;12.77;;;5.75;;
25649;SDS011;13505;45.196;5.696;2023-10-08T10:13:10;11.38;;;6.28;;
25649;SDS011;13505;45.196;5.696;2023-10-08T10:28:26;15.00;;;8.65;;
25649;SDS011;13505;45.196;5.696;2023-10-08T10:33:18;12.23;;;6.60;;
25649;SDS011;13505;45.196;5.696;2023-10-08T10:38:09;11.20;;;6.13;;
25649;SDS011;13505;45.196;5.696;2023-10-08T10:43:00;12.50;;;6.50;;
25649;SDS011;13505;45.196;5.696;2023-10-08T10:47:52;10.52;;;6.30;;
25649;SDS011;13505;45.196;5.696;2023-10-08T10:52:50;9.75;;;6.18;;
25649;SDS011;13505;45.196;5.696;2023-10-08T10:57:41;10.83;;;6.20;;
25649;SDS011;13505;45.196;5.696;2023-10-08T11:02:32;12.35;;;7.13;;
25649;SDS011;13505;45.196;5.696;2023-10-08T11:07:29;11.18;;;6.13;;
25649;SDS011;13505;45.196;5.696;2023-10-08T11:12:19;14.02;;;6.72;;
25649;SDS011;13505;45.196;5.696;2023-10-08T11:17:16;11.45;;;6.85;;
25649;SDS011;13505;45.196;5.696;2023-10-08T11:22:08;11.90;;;7.35;;
25649;SDS011;13505;45.196;5.696;2023-10-08T11:27:06;12.70;;;6.93;;
25649;SDS011;13505;45.196;5.696;2023-10-08T11:32:05;12.18;;;6.45;;
25649;SDS011;13505;45.196;5.696;2023-10-08T11:36:57;14.52;;;6.93;;
25649;SDS011;13505;45.196;5.696;2023-10-08T11:41:57;11.70;;;6.27;;
25649;SDS011;13505;45.196;5.696;2023-10-08T11:46:52;14.77;;;7.40;;
25649;SDS011;13505;45.196;5.696;2023-10-08T11:51:43;11.27;;;6.57;;
25649;SDS011;13505;45.196;5.696;2023-10-08T11:56:35;11.95;;;6.60;;
25649;SDS011;13505;45.196;5.696;2023-10-08T12:01:28;11.38;;;6.15;;
25649;SDS011;13505;45.196;5.696;2023-10-08T12:06:18;10.85;;;6.60;;
25649;SDS011;13505;45.196;5.696;2023-10-08T12:11:09;12.60;;;7.13;;
25649;SDS011;13505;45.196;5.696;2023-10-08T12:16:01;11.25;;;5.80;;
25649;SDS011;13505;45.196;5.696;2023-10-08T12:21:02;12.77;;;6.95;;
25649;SDS011;13505;45.196;5.696;2023-10-08T12:25:53;9.10;;;6.70;;
25649;SDS011;13505;45.196;5.696;2023-10-08T12:30:45;13.57;;;7.00;;
25649;SDS011;13505;45.196;5.696;2023-10-08T12:35:36;14.15;;;6.25;;
25649;SDS011;13505;45.196;5.696;2023-10-08T12:40:27;16.73;;;6.75;;
25649;SDS011;13505;45.196;5.696;2023-10-08T12:45:31;9.23;;;5.78;;
25649;SDS011;13505;45.196;5.696;2023-10-08T12:50:22;13.83;;;5.60;;
25649;SDS011;13505;45.196;5.696;2023-10-08T12:55:32;8.52;;;5.68;;
25649;SDS011;13505;45.196;5.696;2023-10-08T13:00:29;14.50;;;6.05;;
25649;SDS011;13505;45.196;5.696;2023-10-08T13:05:21;13.05;;;6.20;;
25649;SDS011;13505;45.196;5.696;2023-10-08T13:10:17;13.00;;;5.68;;
25649;SDS011;13505;45.196;5.696;2023-10-08T13:15:08;11.33;;;5.77;;
25649;SDS011;13505;45.196;5.696;2023-10-08T13:19:59;13.27;;;6.07;;
25649;SDS011;13505;45.196;5.696;2023-10-08T13:24:49;14.30;;;5.83;;
25649;SDS011;13505;45.196;5.696;2023-10-08T13:29:39;12.15;;;5.65;;
25649;SDS011;13505;45.196;5.696;2023-10-08T13:34:30;16.43;;;5.77;;
25649;SDS011;13505;45.196;5.696;2023-10-08T13:39:21;10.55;;;5.47;;
25649;SDS011;13505;45.196;5.696;2023-10-08T13:44:11;10.20;;;5.97;;
25649;SDS011;13505;45.196;5.696;2023-10-08T13:49:02;14.13;;;6.00;;
25649;SDS011;13505;45.196;5.696;2023-10-08T13:53:56;10.52;;;5.50;;
25649;SDS011;13505;45.196;5.696;2023-10-08T13:58:49;11.25;;;5.65;;
25649;SDS011;13505;45.196;5.696;2023-10-08T14:03:41;9.85;;;5.97;;
25649;SDS011;13505;45.196;5.696;2023-10-08T14:08:32;8.93;;;5.43;;
25649;SDS011;13505;45.196;5.696;2023-10-08T14:13:22;9.50;;;5.50;;
25649;SDS011;13505;45.196;5.696;2023-10-08T14:18:14;9.85;;;5.60;;
25649;SDS011;13505;45.196;5.696;2023-10-08T14:23:07;10.30;;;5.55;;
25649;SDS011;13505;45.196;5.696;2023-10-08T14:27:57;8.87;;;5.87;;
25649;SDS011;13505;45.196;5.696;2023-10-08T14:32:54;12.00;;;5.95;;
25649;SDS011;13505;45.196;5.696;2023-10-08T14:37:47;10.65;;;6.25;;
25649;SDS011;13505;45.196;5.696;2023-10-08T14:42:56;10.48;;;5.70;;
25649;SDS011;13505;45.196;5.696;2023-10-08T14:47:46;10.75;;;5.65;;
25649;SDS011;13505;45.196;5.696;2023-10-08T14:52:38;12.75;;;6.00;;
25649;SDS011;13505;45.196;5.696;2023-10-08T14:57:28;19.33;;;5.80;;
25649;SDS011;13505;45.196;5.696;2023-10-08T15:02:18;10.15;;;5.32;;
25649;SDS011;13505;45.196;5.696;2023-10-08T15:07:09;12.02;;;6.13;;
25649;SDS011;13505;45.196;5.696;2023-10-08T15:12:01;10.18;;;5.25;;
25649;SDS011;13505;45.196;5.696;2023-10-08T15:16:51;9.20;;;5.35;;
25649;SDS011;13505;45.196;5.696;2023-10-08T15:21:42;10.23;;;5.35;;
25649;SDS011;13505;45.196;5.696;2023-10-08T15:26:33;9.90;;;5.75;;
25649;SDS011;13505;45.196;5.696;2023-10-08T15:31:24;13.57;;;5.35;;
25649;SDS011;13505;45.196;5.696;2023-10-08T15:36:14;11.88;;;5.60;;
25649;SDS011;13505;45.196;5.696;2023-10-08T15:41:05;9.15;;;5.70;;
25649;SDS011;13505;45.196;5.696;2023-10-08T15:45:55;9.13;;;5.50;;
25649;SDS011;13505;45.196;5.696;2023-10-08T15:50:45;10.87;;;5.63;;
25649;SDS011;13505;45.196;5.696;2023-10-08T15:55:36;13.30;;;5.07;;
25649;SDS011;13505;45.196;5.696;2023-10-08T16:00:27;11.98;;;5.75;;
25649;SDS011;13505;45.196;5.696;2023-10-08T16:05:18;11.18;;;5.70;;
25649;SDS011;13505;45.196;5.696;2023-10-08T16:10:08;10.07;;;5.30;;
25649;SDS011;13505;45.196;5.696;2023-10-08T16:15:00;16.10;;;6.18;;
25649;SDS011;13505;45.196;5.696;2023-10-08T16:19:50;20.92;;;6.45;;
25649;SDS011;13505;45.196;5.696;2023-10-08T16:24:41;22.77;;;6.82;;
25649;SDS011;13505;45.196;5.696;2023-10-08T16:29:31;24.87;;;6.23;;
25649;SDS011;13505;45.196;5.696;2023-10-08T16:34:22;12.55;;;5.65;;
25649;SDS011;13505;45.196;5.696;2023-10-08T16:39:13;10.52;;;5.70;;
25649;SDS011;13505;45.196;5.696;2023-10-08T16:44:14;12.18;;;5.88;;
25649;SDS011;13505;45.196;5.696;2023-10-08T16:49:05;10.65;;;5.45;;
25649;SDS011;13505;45.196;5.696;2023-10-08T16:53:56;13.90;;;6.30;;
25649;SDS011;13505;45.196;5.696;2023-10-08T16:58:46;9.65;;;5.35;;
25649;SDS011;13505;45.196;5.696;2023-10-08T17:03:37;9.95;;;5.32;;
25649;SDS011;13505;45.196;5.696;2023-10-08T17:08:27;10.82;;;5.22;;
25649;SDS011;13505;45.196;5.696;2023-10-08T17:13:18;12.57;;;5.63;;
25649;SDS011;13505;45.196;5.696;2023-10-08T17:18:08;16.23;;;5.83;;
25649;SDS011;13505;45.196;5.696;2023-10-08T17:23:01;13.43;;;6.03;;
25649;SDS011;13505;45.196;5.696;2023-10-08T17:27:51;10.48;;;5.70;;
25649;SDS011;13505;45.196;5.696;2023-10-08T17:32:41;9.65;;;5.75;;
25649;SDS011;13505;45.196;5.696;2023-10-08T17:37:34;16.08;;;6.28;;
25649;SDS011;13505;45.196;5.696;2023-10-08T17:42:27;10.65;;;6.25;;
25649;SDS011;13505;45.196;5.696;2023-10-08T17:47:19;12.80;;;6.78;;
25649;SDS011;13505;45.196;5.696;2023-10-08T17:52:10;16.63;;;7.05;;
25649;SDS011;13505;45.196;5.696;2023-10-08T17:57:02;13.80;;;6.40;;
25649;SDS011;13505;45.196;5.696;2023-10-08T18:01:54;14.70;;;6.10;;
25649;SDS011;13505;45.196;5.696;2023-10-08T18:06:45;14.23;;;6.82;;
25649;SDS011;13505;45.196;5.696;2023-10-08T18:11:36;11.80;;;6.60;;
25649;SDS011;13505;45.196;5.696;2023-10-08T18:16:31;14.80;;;7.00;;
25649;SDS011;13505;45.196;5.696;2023-10-08T18:21:22;15.32;;;6.93;;
25649;SDS011;13505;45.196;5.696;2023-10-08T18:26:13;12.20;;;6.82;;
25649;SDS011;13505;45.196;5.696;2023-10-08T18:31:04;14.23;;;6.72;;
25649;SDS011;13505;45.196;5.696;2023-10-08T18:36:01;12.98;;;6.90;;
25649;SDS011;13505;45.196;5.696;2023-10-08T18:40:53;14.73;;;6.43;;
25649;SDS011;13505;45.196;5.696;2023-10-08T18:45:44;13.73;;;6.53;;
25649;SDS011;13505;45.196;5.696;2023-10-08T18:50:35;12.60;;;6.45;;
25649;SDS011;13505;45.196;5.696;2023-10-08T18:55:26;14.30;;;6.95;;
25649;SDS011;13505;45.196;5.696;2023-10-08T19:00:19;17.65;;;6.97;;
25649;SDS011;13505;45.196;5.696;2023-10-08T19:05:11;13.90;;;6.80;;
25649;SDS011;13505;45.196;5.696;2023-10-08T19:10:03;15.23;;;6.72;;
25649;SDS011;13505;45.196;5.696;2023-10-08T19:15:15;11.40;;;5.45;;
25649;SDS011;13505;45.196;5.696;2023-10-08T19:20:15;13.32;;;6.15;;
25649;SDS011;13505;45.196;5.696;2023-10-08T19:25:32;12.25;;;5.57;;
25649;SDS011;13505;45.196;5.696;2023-10-08T19:30:43;11.57;;;5.88;;
25649;SDS011;13505;45.196;5.696;2023-10-08T19:35:34;9.90;;;5.28;;
25649;SDS011;13505;45.196;5.696;2023-10-08T19:40:24;12.82;;;5.53;;
25649;SDS011;13505;45.196;5.696;2023-10-08T19:45:16;8.73;;;5.28;;
25649;SDS011;13505;45.196;5.696;2023-10-08T19:50:08;14.65;;;5.72;;
25649;SDS011;13505;45.196;5.696;2023-10-08T19:55:00;10.77;;;5.68;;
25649;SDS011;13505;45.196;5.696;2023-10-08T19:59:51;10.88;;;5.53;;
25649;SDS011;13505;45.196;5.696;2023-10-08T20:04:41;12.18;;;5.57;;
25649;SDS011;13505;45.196;5.696;2023-10-08T20:09:32;13.00;;;5.83;;
25649;SDS011;13505;45.196;5.696;2023-10-08T20:14:22;13.73;;;5.37;;
25649;SDS011;13505;45.196;5.696;2023-10-08T20:19:13;15.23;;;5.53;;
25649;SDS011;13505;45.196;5.696;2023-10-08T20:24:03;14.48;;;5.15;;
25649;SDS011;13505;45.196;5.696;2023-10-08T20:29:14;11.68;;;5.75;;
25649;SDS011;13505;45.196;5.696;2023-10-08T20:34:04;11.73;;;5.37;;
25649;SDS011;13505;45.196;5.696;2023-10-08T20:38:56;11.52;;;5.10;;
25649;SDS011;13505;45.196;5.696;2023-10-08T20:43:48;11.50;;;5.13;;
25649;SDS011;13505;45.196;5.696;2023-10-08T20:48:38;13.27;;;5.15;;
25649;SDS011;13505;45.196;5.696;2023-10-08T20:53:30;10.80;;;5.20;;
25649;SDS011;13505;45.196;5.696;2023-10-08T20:58:21;10.80;;;5.15;;
25649;SDS011;13505;45.196;5.696;2023-10-08T21:03:15;12.63;;;4.88;;
25649;SDS011;13505;45.196;5.696;2023-10-08T21:08:06;11.65;;;5.15;;
25649;SDS011;13505;45.196;5.696;2023-10-08T21:12:58;12.98;;;5.28;;
25649;SDS011;13505;45.196;5.696;2023-10-08T21:17:48;11.47;;;5.00;;
25649;SDS011;13505;45.196;5.696;2023-10-08T21:22:40;14.60;;;5.25;;
25649;SDS011;13505;45.196;5.696;2023-10-08T21:27:36;9.73;;;5.10;;
25649;SDS011;13505;45.196;5.696;2023-10-08T21:32:27;10.73;;;4.60;;
25649;SDS011;13505;45.196;5.696;2023-10-08T21:37:17;13.13;;;5.27;;
25649;SDS011;13505;45.196;5.696;2023-10-08T21:42:08;11.55;;;4.50;;
25649;SDS011;13505;45.196;5.696;2023-10-08T21:46:58;11.17;;;4.93;;
25649;SDS011;13505;45.196;5.696;2023-10-08T21:51:49;12.38;;;4.65;;
25649;SDS011;13505;45.196;5.696;2023-10-08T21:56:41;11.43;;;4.47;;
